Detall de PIREP

Printer-friendly versionPDF version

[2014/10/28 11:16:00]
Flight IATA:CT3124
Pilot Number:042
Company ICAO:CAT
Aircraft Type:A320/E
PAX:56
Departing Airport: LFMP
Destination Airport: LEVC
Alternate Airport:LEPA
Online: VATSIM
Route:BGR UN975 BCN UM985 SOPET
Flight Level:F330
No Slew and time accel
No pause
Crash detect
Detect pilot in Cockpit between each 30 and 45 minutes
11:16 Zero fuel Weight: 124282 Lbs, Fuel Weight: 42195 Lbs
11:16 VATSIM:LFMP 281100Z 13013KT 9999 FEW016 BKN056 19/13 Q1018 NOSIG
11:16 VATSIM:LEVC 281100Z 00000KT 9999 FEW030 24/14 Q1017 NOSIG
11:23 Parking Brakes off
11:33 Take-off
11:33 Take off Weight: 165168 Lbs
11:33 Wind: 357º @ 001 Knots Heading: 148º
11:33 POS N42º 44´ 04´´ E002º 52´ 40´´
11:33 Gear Up: 142 Knots
11:33 Flaps:3 at 142 Knots
11:34 Flaps:2 at 156 Knots
11:35 Flaps:0 at 195 Knots
11:48 Wind:270º@025 Knots Heading: 234º Ground Speed: 435 Knots Altitude 31404 ft
11:49 TOC
11:49 Fuel Weight: 37397 Lb
12:01 TOD
12:01 Fuel Weight: 36310 Lb
12:03 Wind:270º@025 Knots Heading: 230º Ground Speed: 353 Knots Altitude 30629 ft
12:18 Wind:270º@022 Knots Heading: 199º Ground Speed: 243 Knots Altitude 11535 ft
12:22 Flaps:1 at 207 Knots
12:29 Gear Down: 173 Knots
12:30 Flaps:3 at 173 Knots
12:30 Flaps:4 at 159 Knots
12:30 Flaps:5 at 159 Knots
12:32 TouchDown:Rate -333 ft/min Speed: 154 Knots
12:33 Wind:000º@000 Knots Heading: 296º Ground Speed: 146 Knots Altitude 239 ft
12:33 VATSIM:LEVC 281200Z 08003KT 340V150 9999 FEW035 24/14 Q1016 NOSIG
12:33 Land
12:33 Wind:000º@000 Knots
12:33 Heading: 296º
12:33 Flight Duration: 01:00
12:33 Landing Weight: 158946 Lbs
12:33 POS N39º 29´ 23´´ W000º 29´ 00´´
12:39 Parking brakes on
12:39 Block to Block Duration: 01:16
12:39 Final Fuel: 33877 Lbls
12:39 Spent Fuel: 8317 Lbls
12:39 Flight Length: 312 NM
12:39 TOD Land Length: 129 NM

Exportar CSV

Powered by Drupal - Modified by Danger4k